Terminal Aerodrome Forecast
Issued by NWS Green Bay, WI

Home | Current Version | Previous Version | Graphics & Text | Print | Product List | Glossary On
Versions: 1 2 3 4 5 6 7 8 9 10 11 12 13 14 15 16 17
000
FTUS43 KGRB 232336
TAFGRB
TAF
KGRB 232336Z 2400/2424 27010G19KT P6SM SCT050 BKN090
     FM240300 29007KT P6SM SCT050 SCT090
     FM241200 29008KT P6SM BKN080
     FM241600 29012G18KT P6SM BKN050 PROB30 2418/2424 4SM -SHRA
      BKN035=

USA.gov is the U.S. government's official web portal to all federal, state and local government web resources and services.